createdAt,value
2023-03-03T06:29:32.950Z,0.30
2023-03-03T06:34:35.013Z,0.47
2023-03-03T06:39:37.060Z,0.57
2023-03-03T06:44:39.187Z,0.93
2023-03-03T06:49:41.284Z,0.40
2023-03-03T06:54:43.419Z,1.37
2023-03-03T06:59:53.658Z,0.30
2023-03-03T07:04:56.935Z,0.50
2023-03-03T07:09:59.015Z,0.68
2023-03-03T07:15:20.545Z,2.77
2023-03-03T07:20:25.008Z,0.75
2023-03-03T07:25:30.857Z,1.02
2023-03-03T07:30:33.561Z,1.13
2023-03-03T07:35:42.971Z,0.57
2023-03-03T07:40:56.654Z,0.88
2023-03-03T07:46:10.819Z,0.40
2023-03-03T07:51:28.119Z,1.07
2023-03-03T07:56:35.007Z,0.60
2023-03-03T08:01:46.930Z,1.05
2023-03-03T08:06:54.617Z,0.70
2023-03-03T08:12:03.068Z,0.93
2023-03-03T08:17:17.860Z,1.00
2023-03-03T08:22:33.871Z,1.50
2023-03-03T08:27:35.911Z,1.73
2023-03-03T08:32:38.246Z,2.10
2023-03-03T08:37:40.414Z,1.23
2023-03-03T08:42:42.497Z,1.67
2023-03-03T08:47:44.930Z,1.40
2023-03-03T08:52:47.255Z,0.88
2023-03-03T08:57:49.348Z,1.30
2023-03-03T09:02:51.577Z,1.15
2023-03-03T09:07:54.159Z,0.98
2023-03-03T09:13:01.357Z,1.73
2023-03-03T09:18:17.551Z,3.10
2023-03-03T09:23:36.293Z,2.22
2023-03-03T09:28:38.384Z,2.20
2023-03-03T09:33:49.818Z,2.00
2023-03-03T09:38:52.904Z,1.80
2023-03-03T09:44:07.289Z,0.95
2023-03-03T09:49:24.732Z,1.27
2023-03-03T09:54:46.970Z,1.45
2023-03-03T09:59:55.100Z,1.10
2023-03-03T10:05:30.100Z,3.37
2023-03-03T10:10:49.060Z,1.52
2023-03-03T10:16:11.543Z,0.73
2023-03-03T10:21:34.164Z,8.50
2023-03-03T10:26:49.137Z,8.73
2023-03-03T10:32:18.737Z,9.45
2023-03-03T10:37:55.856Z,8.27
2023-03-03T10:43:30.999Z,8.63
2023-03-03T10:48:45.572Z,8.13
2023-03-03T10:54:12.846Z,8.05
2023-03-03T10:59:17.908Z,7.67
2023-03-03T11:04:53.708Z,7.03
2023-03-03T11:10:32.824Z,6.72
2023-03-03T11:15:40.553Z,7.97
2023-03-03T11:20:53.371Z,7.57
2023-03-03T11:26:16.845Z,7.28
2023-03-03T11:31:32.033Z,6.03
2023-03-03T11:36:35.165Z,7.43
2023-03-03T11:41:58.240Z,8.00
2023-03-03T11:47:02.309Z,8.45
2023-03-03T11:52:28.925Z,6.77
2023-03-03T11:57:44.544Z,5.87
2023-03-03T12:03:21.468Z,5.87
2023-03-03T12:08:28.142Z,5.07
2023-03-03T12:13:52.561Z,4.43
2023-03-03T12:19:02.546Z,8.75
2023-03-03T12:24:22.229Z,8.63
2023-03-03T12:29:46.948Z,7.63
2023-03-03T12:35:12.344Z,8.00
2023-03-03T12:40:20.092Z,7.68
2023-03-03T12:45:31.486Z,6.67
2023-03-03T12:50:51.534Z,6.15
2023-03-03T12:55:56.784Z,6.22
2023-03-03T13:01:05.556Z,6.53
2023-03-03T13:06:31.273Z,6.47
2023-03-03T13:11:43.732Z,1.23
2023-03-03T13:16:58.069Z,1.15
2023-03-03T13:22:08.690Z,1.17
2023-03-03T13:27:19.183Z,5.53
2023-03-03T13:32:28.148Z,2.70
2023-03-03T13:37:42.175Z,1.13
2023-03-03T13:43:04.300Z,1.00
2023-03-03T13:48:09.039Z,1.27
2023-03-03T13:53:17.231Z,1.27
2023-03-03T13:58:43.869Z,1.23
2023-03-03T14:04:36.853Z,1.65
2023-03-03T14:10:08.749Z,1.05
2023-03-03T14:15:16.632Z,1.00
2023-03-03T14:20:31.521Z,1.73
2023-03-03T14:25:53.494Z,1.87
2023-03-03T14:31:09.424Z,1.20
2023-03-03T14:36:13.037Z,0.77
2023-03-03T14:41:19.180Z,0.50
2023-03-03T14:46:27.538Z,1.07
2023-03-03T14:51:39.238Z,0.87
2023-03-03T14:57:03.920Z,1.45
2023-03-03T15:02:28.681Z,1.40
2023-03-03T15:07:36.976Z,1.47
2023-03-03T15:12:41.484Z,1.25
2023-03-03T15:17:56.573Z,1.37
2023-03-03T15:23:36.305Z,1.13
2023-03-03T15:28:59.381Z,1.73
2023-03-03T15:34:25.015Z,0.37
2023-03-03T15:39:47.362Z,1.13
2023-03-03T15:45:37.958Z,1.60
2023-03-03T15:51:08.772Z,1.50
2023-03-03T15:56:49.269Z,2.17
2023-03-03T16:02:06.501Z,0.80
2023-03-03T16:07:17.825Z,1.05
2023-03-03T16:12:42.484Z,0.25
2023-03-03T16:18:25.909Z,0.60
2023-03-03T16:23:40.048Z,0.65
2023-03-03T16:28:54.028Z,1.00
2023-03-03T16:34:11.634Z,0.50
2023-03-03T16:39:56.504Z,0.33
2023-03-03T16:45:18.558Z,1.08
2023-03-03T16:50:45.019Z,1.20
2023-03-03T16:56:23.371Z,1.10
2023-03-03T17:01:47.966Z,0.40
2023-03-03T17:07:08.335Z,0.30
2023-03-03T17:12:25.892Z,0.20
2023-03-03T17:17:33.939Z,0.40
2023-03-03T17:22:42.237Z,1.12
2023-03-03T17:28:12.324Z,0.97
2023-03-03T17:33:20.521Z,0.40
2023-03-03T17:38:58.118Z,0.62
2023-03-03T17:44:25.877Z,0.70
2023-03-03T17:49:40.074Z,0.30
2023-03-03T17:55:07.594Z,0.50
2023-03-03T18:00:25.056Z,0.20
2023-03-03T18:05:54.648Z,0.67
2023-03-03T18:11:15.307Z,1.10
2023-03-03T18:16:48.566Z,0.57
2023-03-03T18:22:13.990Z,0.30
2023-03-03T18:27:24.828Z,0.47
2023-03-03T18:33:01.266Z,0.45
2023-03-03T18:38:15.608Z,0.65
2023-03-03T18:43:45.534Z,1.07
2023-03-03T18:49:01.109Z,0.82
2023-03-03T18:54:12.002Z,0.40
2023-03-03T18:59:41.430Z,0.60
2023-03-03T19:04:48.722Z,0.28
2023-03-03T19:09:57.392Z,0.40
2023-03-03T19:14:59.621Z,0.60
2023-03-03T19:20:07.701Z,0.77
2023-03-03T19:25:09.810Z,0.50
2023-03-03T19:30:47.530Z,0.62
2023-03-03T19:36:46.883Z,0.63
2023-03-03T19:42:07.022Z,0.88
2023-03-03T19:47:54.471Z,0.52
2023-03-03T19:53:01.538Z,0.20
2023-03-03T19:58:28.499Z,0.40
2023-03-03T20:03:52.026Z,0.68
2023-03-03T20:09:20.653Z,0.40
2023-03-03T20:14:35.046Z,0.43
2023-03-03T20:19:58.611Z,1.20
2023-03-03T20:25:07.376Z,0.30
2023-03-03T20:30:48.509Z,0.33
2023-03-03T20:35:57.483Z,1.00
2023-03-03T20:41:14.468Z,0.57
2023-03-03T20:46:27.063Z,0.30
2023-03-03T20:51:43.008Z,0.40
2023-03-03T20:57:24.283Z,0.80
2023-03-03T21:02:53.665Z,0.30
2023-03-03T21:08:05.220Z,0.60
2023-03-03T21:13:29.539Z,0.80
2023-03-03T21:18:32.776Z,0.25
2023-03-03T21:23:35.074Z,0.20
2023-03-03T21:28:37.228Z,0.50
2023-03-03T21:33:48.411Z,0.73
2023-03-03T21:38:53.606Z,0.50
2023-03-03T21:43:55.831Z,0.30
2023-03-03T21:48:57.921Z,0.40
2023-03-03T21:54:00.090Z,0.20
2023-03-03T21:59:02.230Z,0.47
2023-03-03T22:04:04.405Z,0.40
2023-03-03T22:09:06.949Z,0.50
2023-03-03T22:14:09.067Z,1.47
2023-03-03T22:19:11.260Z,0.52
2023-03-03T22:24:13.416Z,0.20
